sensor_id;sensor_type;location;lat;lon;timestamp;P1;durP1;ratioP1;P2;durP2;ratioP2
70320;SDS011;61127;55.826;37.046;2023-03-14T00:00:08;4.53;;;1.27;;
70320;SDS011;61127;55.826;37.046;2023-03-14T00:02:35;4.03;;;1.40;;
70320;SDS011;61127;55.826;37.046;2023-03-14T00:05:02;7.93;;;1.40;;
70320;SDS011;61127;55.826;37.046;2023-03-14T00:07:35;4.60;;;1.40;;
70320;SDS011;61127;55.826;37.046;2023-03-14T00:10:03;6.38;;;1.42;;
70320;SDS011;61127;55.826;37.046;2023-03-14T00:12:30;5.70;;;1.40;;
70320;SDS011;61127;55.826;37.046;2023-03-14T00:14:56;5.22;;;1.60;;
70320;SDS011;61127;55.826;37.046;2023-03-14T00:17:22;3.10;;;1.10;;
70320;SDS011;61127;55.826;37.046;2023-03-14T00:19:48;2.47;;;1.38;;
70320;SDS011;61127;55.826;37.046;2023-03-14T00:22:17;5.72;;;1.27;;
70320;SDS011;61127;55.826;37.046;2023-03-14T00:24:43;6.80;;;1.27;;
70320;SDS011;61127;55.826;37.046;2023-03-14T00:27:08;4.27;;;1.40;;
70320;SDS011;61127;55.826;37.046;2023-03-14T00:29:34;4.77;;;1.40;;
70320;SDS011;61127;55.826;37.046;2023-03-14T00:32:00;4.40;;;1.40;;
70320;SDS011;61127;55.826;37.046;2023-03-14T00:34:29;7.23;;;1.50;;
70320;SDS011;61127;55.826;37.046;2023-03-14T00:36:56;4.60;;;1.30;;
70320;SDS011;61127;55.826;37.046;2023-03-14T00:39:21;4.40;;;1.30;;
70320;SDS011;61127;55.826;37.046;2023-03-14T00:41:47;4.47;;;1.30;;
70320;SDS011;61127;55.826;37.046;2023-03-14T00:44:12;2.58;;;1.30;;
70320;SDS011;61127;55.826;37.046;2023-03-14T00:46:39;3.93;;;1.30;;
70320;SDS011;61127;55.826;37.046;2023-03-14T00:49:04;4.20;;;1.77;;
70320;SDS011;61127;55.826;37.046;2023-03-14T00:51:30;2.93;;;1.07;;
70320;SDS011;61127;55.826;37.046;2023-03-14T00:53:55;4.85;;;1.30;;
70320;SDS011;61127;55.826;37.046;2023-03-14T00:56:21;5.23;;;1.33;;
70320;SDS011;61127;55.826;37.046;2023-03-14T00:58:47;5.88;;;1.70;;
70320;SDS011;61127;55.826;37.046;2023-03-14T01:01:14;5.10;;;1.73;;
70320;SDS011;61127;55.826;37.046;2023-03-14T01:03:39;5.28;;;1.40;;
70320;SDS011;61127;55.826;37.046;2023-03-14T01:06:07;3.33;;;1.30;;
70320;SDS011;61127;55.826;37.046;2023-03-14T01:08:34;4.78;;;1.20;;
70320;SDS011;61127;55.826;37.046;2023-03-14T01:11:04;4.88;;;1.38;;
70320;SDS011;61127;55.826;37.046;2023-03-14T01:13:30;3.33;;;1.48;;
70320;SDS011;61127;55.826;37.046;2023-03-14T01:15:55;3.50;;;1.35;;
70320;SDS011;61127;55.826;37.046;2023-03-14T01:18:25;7.57;;;1.60;;
70320;SDS011;61127;55.826;37.046;2023-03-14T01:20:51;3.83;;;1.70;;
70320;SDS011;61127;55.826;37.046;2023-03-14T01:23:16;3.50;;;1.40;;
70320;SDS011;61127;55.826;37.046;2023-03-14T01:25:43;5.87;;;1.90;;
70320;SDS011;61127;55.826;37.046;2023-03-14T01:28:08;2.60;;;1.33;;
70320;SDS011;61127;55.826;37.046;2023-03-14T01:30:34;4.93;;;1.80;;
70320;SDS011;61127;55.826;37.046;2023-03-14T01:32:59;5.45;;;1.65;;
70320;SDS011;61127;55.826;37.046;2023-03-14T01:35:26;6.33;;;2.47;;
70320;SDS011;61127;55.826;37.046;2023-03-14T01:37:54;6.13;;;1.80;;
70320;SDS011;61127;55.826;37.046;2023-03-14T01:40:21;5.75;;;1.75;;
70320;SDS011;61127;55.826;37.046;2023-03-14T01:42:57;4.27;;;1.90;;
70320;SDS011;61127;55.826;37.046;2023-03-14T01:48:10;6.30;;;2.08;;
70320;SDS011;61127;55.826;37.046;2023-03-14T01:50:36;7.40;;;2.60;;
70320;SDS011;61127;55.826;37.046;2023-03-14T01:53:02;4.33;;;2.23;;
70320;SDS011;61127;55.826;37.046;2023-03-14T01:55:27;9.43;;;2.78;;
70320;SDS011;61127;55.826;37.046;2023-03-14T02:01:38;8.95;;;3.00;;
70320;SDS011;61127;55.826;37.046;2023-03-14T02:04:06;5.88;;;2.13;;
70320;SDS011;61127;55.826;37.046;2023-03-14T02:06:40;6.00;;;2.83;;
70320;SDS011;61127;55.826;37.046;2023-03-14T02:09:07;7.70;;;3.03;;
70320;SDS011;61127;55.826;37.046;2023-03-14T02:11:35;7.50;;;2.90;;
70320;SDS011;61127;55.826;37.046;2023-03-14T02:14:05;7.68;;;3.92;;
70320;SDS011;61127;55.826;37.046;2023-03-14T02:16:53;8.52;;;2.78;;
70320;SDS011;61127;55.826;37.046;2023-03-14T02:22:20;9.32;;;3.30;;
70320;SDS011;61127;55.826;37.046;2023-03-14T02:27:36;8.13;;;3.83;;
70320;SDS011;61127;55.826;37.046;2023-03-14T02:30:10;10.00;;;4.05;;
70320;SDS011;61127;55.826;37.046;2023-03-14T02:32:38;7.67;;;3.23;;
70320;SDS011;61127;55.826;37.046;2023-03-14T02:35:11;6.95;;;3.28;;
70320;SDS011;61127;55.826;37.046;2023-03-14T02:37:45;7.63;;;3.63;;
70320;SDS011;61127;55.826;37.046;2023-03-14T02:40:13;5.63;;;2.95;;
70320;SDS011;61127;55.826;37.046;2023-03-14T02:42:40;9.15;;;3.58;;
70320;SDS011;61127;55.826;37.046;2023-03-14T02:47:31;8.25;;;4.07;;
70320;SDS011;61127;55.826;37.046;2023-03-14T02:49:59;12.60;;;4.37;;
70320;SDS011;61127;55.826;37.046;2023-03-14T02:52:26;12.40;;;4.40;;
70320;SDS011;61127;55.826;37.046;2023-03-14T02:54:56;10.73;;;4.63;;
70320;SDS011;61127;55.826;37.046;2023-03-14T02:57:23;8.57;;;3.73;;
70320;SDS011;61127;55.826;37.046;2023-03-14T02:59:48;7.53;;;3.25;;
70320;SDS011;61127;55.826;37.046;2023-03-14T03:02:17;8.65;;;4.57;;
70320;SDS011;61127;55.826;37.046;2023-03-14T03:04:43;8.90;;;4.07;;
70320;SDS011;61127;55.826;37.046;2023-03-14T03:07:08;10.67;;;4.30;;
70320;SDS011;61127;55.826;37.046;2023-03-14T03:09:34;8.88;;;3.97;;
70320;SDS011;61127;55.826;37.046;2023-03-14T03:12:00;8.77;;;4.00;;
70320;SDS011;61127;55.826;37.046;2023-03-14T03:14:27;9.40;;;4.55;;
70320;SDS011;61127;55.826;37.046;2023-03-14T03:16:57;7.90;;;4.17;;
70320;SDS011;61127;55.826;37.046;2023-03-14T03:19:23;9.68;;;4.72;;
70320;SDS011;61127;55.826;37.046;2023-03-14T03:21:50;8.40;;;3.38;;
70320;SDS011;61127;55.826;37.046;2023-03-14T03:24:15;9.23;;;5.43;;
70320;SDS011;61127;55.826;37.046;2023-03-14T03:26:41;12.07;;;4.65;;
70320;SDS011;61127;55.826;37.046;2023-03-14T03:29:09;10.10;;;4.90;;
70320;SDS011;61127;55.826;37.046;2023-03-14T03:31:36;12.88;;;5.10;;
70320;SDS011;61127;55.826;37.046;2023-03-14T03:34:02;11.27;;;5.25;;
70320;SDS011;61127;55.826;37.046;2023-03-14T03:36:29;10.33;;;5.23;;
70320;SDS011;61127;55.826;37.046;2023-03-14T03:38:57;11.88;;;5.18;;
70320;SDS011;61127;55.826;37.046;2023-03-14T03:41:23;11.48;;;4.80;;
70320;SDS011;61127;55.826;37.046;2023-03-14T03:43:49;10.18;;;5.03;;
70320;SDS011;61127;55.826;37.046;2023-03-14T03:46:17;11.05;;;4.85;;
70320;SDS011;61127;55.826;37.046;2023-03-14T03:48:43;11.27;;;5.27;;
70320;SDS011;61127;55.826;37.046;2023-03-14T03:51:11;10.30;;;5.30;;
70320;SDS011;61127;55.826;37.046;2023-03-14T03:53:37;11.70;;;6.00;;
70320;SDS011;61127;55.826;37.046;2023-03-14T03:56:08;10.75;;;5.78;;
70320;SDS011;61127;55.826;37.046;2023-03-14T03:58:34;13.38;;;5.70;;
70320;SDS011;61127;55.826;37.046;2023-03-14T04:01:01;11.40;;;5.80;;
70320;SDS011;61127;55.826;37.046;2023-03-14T04:03:26;13.07;;;5.87;;
70320;SDS011;61127;55.826;37.046;2023-03-14T04:06:02;11.80;;;5.57;;
70320;SDS011;61127;55.826;37.046;2023-03-14T04:08:30;12.43;;;6.05;;
70320;SDS011;61127;55.826;37.046;2023-03-14T04:10:57;11.52;;;5.45;;
70320;SDS011;61127;55.826;37.046;2023-03-14T04:13:36;14.37;;;6.23;;
70320;SDS011;61127;55.826;37.046;2023-03-14T04:16:02;11.48;;;5.55;;
70320;SDS011;61127;55.826;37.046;2023-03-14T04:18:28;12.05;;;6.53;;
70320;SDS011;61127;55.826;37.046;2023-03-14T04:20:56;12.33;;;5.63;;
70320;SDS011;61127;55.826;37.046;2023-03-14T04:23:27;12.32;;;5.28;;
70320;SDS011;61127;55.826;37.046;2023-03-14T04:25:58;11.80;;;5.50;;
70320;SDS011;61127;55.826;37.046;2023-03-14T04:28:24;12.98;;;6.53;;
70320;SDS011;61127;55.826;37.046;2023-03-14T04:30:49;11.17;;;6.07;;
70320;SDS011;61127;55.826;37.046;2023-03-14T04:33:20;10.80;;;5.82;;
70320;SDS011;61127;55.826;37.046;2023-03-14T04:35:54;11.48;;;6.20;;
70320;SDS011;61127;55.826;37.046;2023-03-14T04:38:20;12.33;;;6.80;;
70320;SDS011;61127;55.826;37.046;2023-03-14T04:40:46;13.23;;;6.20;;
70320;SDS011;61127;55.826;37.046;2023-03-14T04:43:13;12.30;;;5.95;;
70320;SDS011;61127;55.826;37.046;2023-03-14T04:45:47;10.85;;;6.15;;
70320;SDS011;61127;55.826;37.046;2023-03-14T04:48:13;12.73;;;5.47;;
70320;SDS011;61127;55.826;37.046;2023-03-14T04:50:39;11.82;;;6.32;;
70320;SDS011;61127;55.826;37.046;2023-03-14T04:53:05;14.07;;;6.90;;
70320;SDS011;61127;55.826;37.046;2023-03-14T04:55:32;14.00;;;6.43;;
70320;SDS011;61127;55.826;37.046;2023-03-14T04:58:00;14.60;;;6.30;;
70320;SDS011;61127;55.826;37.046;2023-03-14T05:00:25;11.95;;;6.90;;
70320;SDS011;61127;55.826;37.046;2023-03-14T05:03:01;10.83;;;5.53;;
70320;SDS011;61127;55.826;37.046;2023-03-14T05:06:02;13.07;;;7.00;;
70320;SDS011;61127;55.826;37.046;2023-03-14T05:09:00;11.18;;;5.65;;
70320;SDS011;61127;55.826;37.046;2023-03-14T05:12:04;9.02;;;5.10;;
70320;SDS011;61127;55.826;37.046;2023-03-14T05:14:54;11.90;;;5.93;;
70320;SDS011;61127;55.826;37.046;2023-03-14T05:17:29;10.10;;;5.57;;
70320;SDS011;61127;55.826;37.046;2023-03-14T05:20:19;10.98;;;5.57;;
70320;SDS011;61127;55.826;37.046;2023-03-14T05:23:10;10.93;;;6.22;;
70320;SDS011;61127;55.826;37.046;2023-03-14T05:25:59;11.90;;;5.72;;
70320;SDS011;61127;55.826;37.046;2023-03-14T05:28:41;12.70;;;6.60;;
70320;SDS011;61127;55.826;37.046;2023-03-14T05:31:21;12.17;;;6.53;;
70320;SDS011;61127;55.826;37.046;2023-03-14T05:34:13;11.88;;;5.53;;
70320;SDS011;61127;55.826;37.046;2023-03-14T05:36:54;12.27;;;6.50;;
70320;SDS011;61127;55.826;37.046;2023-03-14T05:39:47;11.32;;;5.82;;
70320;SDS011;61127;55.826;37.046;2023-03-14T05:42:28;10.77;;;5.00;;
70320;SDS011;61127;55.826;37.046;2023-03-14T05:45:18;9.13;;;4.97;;
70320;SDS011;61127;55.826;37.046;2023-03-14T05:47:52;11.48;;;5.78;;
70320;SDS011;61127;55.826;37.046;2023-03-14T05:50:28;10.57;;;5.28;;
70320;SDS011;61127;55.826;37.046;2023-03-14T05:53:14;12.93;;;4.63;;
70320;SDS011;61127;55.826;37.046;2023-03-14T05:56:09;12.25;;;4.95;;
70320;SDS011;61127;55.826;37.046;2023-03-14T05:58:58;12.13;;;5.80;;
70320;SDS011;61127;55.826;37.046;2023-03-14T06:01:47;11.63;;;5.45;;
70320;SDS011;61127;55.826;37.046;2023-03-14T06:04:17;10.18;;;5.75;;
70320;SDS011;61127;55.826;37.046;2023-03-14T06:06:49;15.25;;;5.45;;
70320;SDS011;61127;55.826;37.046;2023-03-14T06:09:15;12.82;;;5.28;;
70320;SDS011;61127;55.826;37.046;2023-03-14T06:11:42;9.13;;;5.23;;
70320;SDS011;61127;55.826;37.046;2023-03-14T06:14:08;14.55;;;5.85;;
70320;SDS011;61127;55.826;37.046;2023-03-14T06:16:34;12.77;;;5.67;;
70320;SDS011;61127;55.826;37.046;2023-03-14T06:19:00;13.00;;;4.97;;
70320;SDS011;61127;55.826;37.046;2023-03-14T06:21:27;9.85;;;4.63;;
70320;SDS011;61127;55.826;37.046;2023-03-14T06:23:54;10.73;;;5.05;;
70320;SDS011;61127;55.826;37.046;2023-03-14T06:26:21;12.07;;;5.57;;
70320;SDS011;61127;55.826;37.046;2023-03-14T06:28:48;10.15;;;5.28;;
70320;SDS011;61127;55.826;37.046;2023-03-14T06:31:14;11.10;;;5.50;;
70320;SDS011;61127;55.826;37.046;2023-03-14T06:33:51;10.80;;;5.30;;
70320;SDS011;61127;55.826;37.046;2023-03-14T06:38:55;11.18;;;5.72;;
70320;SDS011;61127;55.826;37.046;2023-03-14T06:41:22;12.07;;;4.95;;
70320;SDS011;61127;55.826;37.046;2023-03-14T06:43:49;8.77;;;5.07;;
70320;SDS011;61127;55.826;37.046;2023-03-14T06:46:15;11.03;;;5.67;;
70320;SDS011;61127;55.826;37.046;2023-03-14T06:48:42;10.55;;;5.25;;
70320;SDS011;61127;55.826;37.046;2023-03-14T06:51:08;12.57;;;6.00;;
70320;SDS011;61127;55.826;37.046;2023-03-14T06:53:34;17.13;;;5.40;;
70320;SDS011;61127;55.826;37.046;2023-03-14T06:56:01;10.48;;;4.43;;
70320;SDS011;61127;55.826;37.046;2023-03-14T06:58:29;12.40;;;4.93;;
70320;SDS011;61127;55.826;37.046;2023-03-14T07:00:55;10.25;;;5.30;;
70320;SDS011;61127;55.826;37.046;2023-03-14T07:03:25;15.48;;;5.38;;
70320;SDS011;61127;55.826;37.046;2023-03-14T07:05:54;12.03;;;4.97;;
70320;SDS011;61127;55.826;37.046;2023-03-14T07:08:20;9.93;;;5.18;;
70320;SDS011;61127;55.826;37.046;2023-03-14T07:10:45;13.93;;;5.20;;
70320;SDS011;61127;55.826;37.046;2023-03-14T07:13:11;10.63;;;4.93;;
70320;SDS011;61127;55.826;37.046;2023-03-14T07:15:55;10.68;;;4.57;;
70320;SDS011;61127;55.826;37.046;2023-03-14T07:18:22;8.73;;;3.90;;
70320;SDS011;61127;55.826;37.046;2023-03-14T07:20:47;7.70;;;4.00;;
70320;SDS011;61127;55.826;37.046;2023-03-14T07:23:14;7.80;;;4.10;;
70320;SDS011;61127;55.826;37.046;2023-03-14T07:25:53;10.80;;;4.28;;
70320;SDS011;61127;55.826;37.046;2023-03-14T07:28:21;8.70;;;4.27;;
70320;SDS011;61127;55.826;37.046;2023-03-14T07:30:53;11.45;;;4.18;;
70320;SDS011;61127;55.826;37.046;2023-03-14T07:33:24;9.77;;;4.03;;
70320;SDS011;61127;55.826;37.046;2023-03-14T07:35:50;7.90;;;3.92;;
70320;SDS011;61127;55.826;37.046;2023-03-14T07:38:16;8.80;;;4.27;;
70320;SDS011;61127;55.826;37.046;2023-03-14T07:41:02;8.60;;;4.07;;
70320;SDS011;61127;55.826;37.046;2023-03-14T07:43:30;8.60;;;4.15;;
70320;SDS011;61127;55.826;37.046;2023-03-14T07:46:01;8.17;;;3.50;;
70320;SDS011;61127;55.826;37.046;2023-03-14T07:48:27;9.32;;;3.88;;
70320;SDS011;61127;55.826;37.046;2023-03-14T07:50:53;9.27;;;4.35;;
70320;SDS011;61127;55.826;37.046;2023-03-14T07:53:19;9.88;;;4.95;;
70320;SDS011;61127;55.826;37.046;2023-03-14T07:55:44;7.83;;;3.83;;
70320;SDS011;61127;55.826;37.046;2023-03-14T07:58:11;10.77;;;4.15;;
70320;SDS011;61127;55.826;37.046;2023-03-14T08:00:36;9.20;;;4.07;;
70320;SDS011;61127;55.826;37.046;2023-03-14T08:03:02;10.93;;;3.78;;
70320;SDS011;61127;55.826;37.046;2023-03-14T08:05:28;8.50;;;3.90;;
70320;SDS011;61127;55.826;37.046;2023-03-14T08:07:54;8.57;;;4.13;;
70320;SDS011;61127;55.826;37.046;2023-03-14T08:10:22;9.33;;;3.70;;
70320;SDS011;61127;55.826;37.046;2023-03-14T08:12:52;10.85;;;4.28;;
70320;SDS011;61127;55.826;37.046;2023-03-14T08:15:19;10.50;;;4.18;;
70320;SDS011;61127;55.826;37.046;2023-03-14T08:17:44;9.00;;;4.20;;
70320;SDS011;61127;55.826;37.046;2023-03-14T08:20:11;9.20;;;3.97;;
70320;SDS011;61127;55.826;37.046;2023-03-14T08:22:37;9.88;;;4.32;;
70320;SDS011;61127;55.826;37.046;2023-03-14T08:25:03;10.57;;;4.00;;
70320;SDS011;61127;55.826;37.046;2023-03-14T08:27:29;9.00;;;4.45;;
70320;SDS011;61127;55.826;37.046;2023-03-14T08:29:55;13.00;;;4.57;;
70320;SDS011;61127;55.826;37.046;2023-03-14T08:32:21;11.23;;;4.63;;
70320;SDS011;61127;55.826;37.046;2023-03-14T08:34:48;11.93;;;4.35;;
70320;SDS011;61127;55.826;37.046;2023-03-14T08:37:14;9.10;;;4.03;;
70320;SDS011;61127;55.826;37.046;2023-03-14T08:39:39;11.70;;;3.88;;
70320;SDS011;61127;55.826;37.046;2023-03-14T08:42:05;10.30;;;3.95;;
70320;SDS011;61127;55.826;37.046;2023-03-14T08:44:30;9.43;;;3.53;;
70320;SDS011;61127;55.826;37.046;2023-03-14T08:46:56;7.97;;;3.73;;
70320;SDS011;61127;55.826;37.046;2023-03-14T08:49:22;8.27;;;3.80;;
70320;SDS011;61127;55.826;37.046;2023-03-14T08:51:48;8.18;;;3.85;;
70320;SDS011;61127;55.826;37.046;2023-03-14T08:54:13;10.20;;;3.73;;
70320;SDS011;61127;55.826;37.046;2023-03-14T08:56:40;8.00;;;3.17;;
70320;SDS011;61127;55.826;37.046;2023-03-14T08:59:05;6.72;;;3.67;;
70320;SDS011;61127;55.826;37.046;2023-03-14T09:01:31;10.57;;;3.90;;
70320;SDS011;61127;55.826;37.046;2023-03-14T09:03:57;7.57;;;3.73;;
70320;SDS011;61127;55.826;37.046;2023-03-14T09:06:23;6.45;;;2.88;;
70320;SDS011;61127;55.826;37.046;2023-03-14T09:08:48;7.47;;;3.77;;
70320;SDS011;61127;55.826;37.046;2023-03-14T09:11:14;8.07;;;3.07;;
70320;SDS011;61127;55.826;37.046;2023-03-14T09:13:39;6.20;;;3.90;;
70320;SDS011;61127;55.826;37.046;2023-03-14T09:16:06;7.77;;;3.30;;
70320;SDS011;61127;55.826;37.046;2023-03-14T09:18:31;8.70;;;3.65;;
70320;SDS011;61127;55.826;37.046;2023-03-14T09:20:57;7.47;;;3.65;;
70320;SDS011;61127;55.826;37.046;2023-03-14T09:23:23;9.13;;;3.80;;
70320;SDS011;61127;55.826;37.046;2023-03-14T09:25:53;9.43;;;3.75;;
70320;SDS011;61127;55.826;37.046;2023-03-14T09:28:19;8.40;;;3.90;;
70320;SDS011;61127;55.826;37.046;2023-03-14T09:30:44;9.82;;;4.20;;
70320;SDS011;61127;55.826;37.046;2023-03-14T09:33:10;12.57;;;4.60;;
70320;SDS011;61127;55.826;37.046;2023-03-14T09:35:36;7.53;;;3.80;;
70320;SDS011;61127;55.826;37.046;2023-03-14T09:38:02;8.40;;;4.07;;
70320;SDS011;61127;55.826;37.046;2023-03-14T09:40:31;7.43;;;3.50;;
70320;SDS011;61127;55.826;37.046;2023-03-14T09:42:57;8.07;;;3.97;;
70320;SDS011;61127;55.826;37.046;2023-03-14T09:45:35;9.07;;;3.87;;
70320;SDS011;61127;55.826;37.046;2023-03-14T09:48:02;8.50;;;3.85;;
70320;SDS011;61127;55.826;37.046;2023-03-14T09:51:11;10.63;;;4.18;;
70320;SDS011;61127;55.826;37.046;2023-03-14T09:53:19;8.30;;;4.18;;
70320;SDS011;61127;55.826;37.046;2023-03-14T09:55:47;9.98;;;5.05;;
70320;SDS011;61127;55.826;37.046;2023-03-14T09:58:15;11.83;;;5.07;;
70320;SDS011;61127;55.826;37.046;2023-03-14T10:00:41;12.10;;;4.82;;
70320;SDS011;61127;55.826;37.046;2023-03-14T10:05:32;9.60;;;5.50;;
70320;SDS011;61127;55.826;37.046;2023-03-14T10:07:58;14.13;;;5.77;;
70320;SDS011;61127;55.826;37.046;2023-03-14T10:10:24;13.18;;;5.40;;
70320;SDS011;61127;55.826;37.046;2023-03-14T10:13:05;13.87;;;5.80;;
70320;SDS011;61127;55.826;37.046;2023-03-14T10:15:39;13.27;;;5.95;;
70320;SDS011;61127;55.826;37.046;2023-03-14T10:18:09;10.85;;;5.53;;
70320;SDS011;61127;55.826;37.046;2023-03-14T10:20:42;13.98;;;5.78;;
70320;SDS011;61127;55.826;37.046;2023-03-14T10:25:36;11.83;;;5.00;;
70320;SDS011;61127;55.826;37.046;2023-03-14T10:28:09;9.43;;;4.38;;
70320;SDS011;61127;55.826;37.046;2023-03-14T10:30:43;10.23;;;5.15;;
70320;SDS011;61127;55.826;37.046;2023-03-14T10:36:02;8.00;;;4.90;;
70320;SDS011;61127;55.826;37.046;2023-03-14T10:38:31;10.23;;;4.63;;
70320;SDS011;61127;55.826;37.046;2023-03-14T10:40:57;10.07;;;4.35;;
70320;SDS011;61127;55.826;37.046;2023-03-14T10:43:30;10.60;;;4.55;;
70320;SDS011;61127;55.826;37.046;2023-03-14T10:46:09;9.45;;;4.13;;
70320;SDS011;61127;55.826;37.046;2023-03-14T10:48:55;8.43;;;4.00;;
70320;SDS011;61127;55.826;37.046;2023-03-14T10:51:29;8.60;;;3.80;;
70320;SDS011;61127;55.826;37.046;2023-03-14T10:53:56;8.52;;;3.80;;
70320;SDS011;61127;55.826;37.046;2023-03-14T10:56:24;10.00;;;4.20;;
70320;SDS011;61127;55.826;37.046;2023-03-14T10:58:51;8.65;;;3.90;;
70320;SDS011;61127;55.826;37.046;2023-03-14T11:03:45;8.40;;;3.90;;
70320;SDS011;61127;55.826;37.046;2023-03-14T11:06:36;6.30;;;3.30;;
70320;SDS011;61127;55.826;37.046;2023-03-14T11:09:12;7.47;;;3.47;;
70320;SDS011;61127;55.826;37.046;2023-03-14T11:11:40;9.70;;;4.10;;
70320;SDS011;61127;55.826;37.046;2023-03-14T11:14:12;8.45;;;3.55;;
70320;SDS011;61127;55.826;37.046;2023-03-14T11:31:49;7.23;;;3.40;;
70320;SDS011;61127;55.826;37.046;2023-03-14T11:37:06;9.43;;;3.92;;
70320;SDS011;61127;55.826;37.046;2023-03-14T11:39:40;9.00;;;3.70;;
70320;SDS011;61127;55.826;37.046;2023-03-14T11:42:12;8.65;;;3.30;;
70320;SDS011;61127;55.826;37.046;2023-03-14T11:44:39;13.65;;;4.35;;
70320;SDS011;61127;55.826;37.046;2023-03-14T11:49:56;7.75;;;3.40;;
70320;SDS011;61127;55.826;37.046;2023-03-14T11:52:33;7.10;;;3.40;;
70320;SDS011;61127;55.826;37.046;2023-03-14T11:57:40;8.82;;;3.20;;
70320;SDS011;61127;55.826;37.046;2023-03-14T12:10:38;10.03;;;3.57;;
70320;SDS011;61127;55.826;37.046;2023-03-14T12:13:04;6.10;;;3.08;;
70320;SDS011;61127;55.826;37.046;2023-03-14T12:15:40;5.32;;;3.00;;
70320;SDS011;61127;55.826;37.046;2023-03-14T12:18:15;6.32;;;2.95;;
70320;SDS011;61127;55.826;37.046;2023-03-14T12:20:50;7.57;;;3.10;;
70320;SDS011;61127;55.826;37.046;2023-03-14T12:23:16;8.20;;;3.22;;
70320;SDS011;61127;55.826;37.046;2023-03-14T12:25:43;7.90;;;3.30;;
70320;SDS011;61127;55.826;37.046;2023-03-14T12:30:40;6.38;;;3.40;;
70320;SDS011;61127;55.826;37.046;2023-03-14T12:35:46;8.57;;;3.70;;
70320;SDS011;61127;55.826;37.046;2023-03-14T12:43:50;9.45;;;3.40;;
70320;SDS011;61127;55.826;37.046;2023-03-14T12:48:38;6.00;;;3.17;;
70320;SDS011;61127;55.826;37.046;2023-03-14T12:51:05;7.15;;;3.13;;
70320;SDS011;61127;55.826;37.046;2023-03-14T12:58:44;7.95;;;2.95;;
70320;SDS011;61127;55.826;37.046;2023-03-14T13:01:17;9.18;;;3.45;;
70320;SDS011;61127;55.826;37.046;2023-03-14T13:03:47;6.22;;;3.00;;
70320;SDS011;61127;55.826;37.046;2023-03-14T13:06:44;5.60;;;2.70;;
70320;SDS011;61127;55.826;37.046;2023-03-14T13:09:20;7.82;;;2.97;;
70320;SDS011;61127;55.826;37.046;2023-03-14T13:11:46;5.80;;;3.05;;
70320;SDS011;61127;55.826;37.046;2023-03-14T13:14:12;5.75;;;2.65;;
70320;SDS011;61127;55.826;37.046;2023-03-14T13:16:39;5.87;;;2.87;;
70320;SDS011;61127;55.826;37.046;2023-03-14T13:19:11;6.20;;;2.92;;
70320;SDS011;61127;55.826;37.046;2023-03-14T13:21:39;5.68;;;2.80;;
70320;SDS011;61127;55.826;37.046;2023-03-14T13:24:06;6.67;;;2.60;;
70320;SDS011;61127;55.826;37.046;2023-03-14T13:26:34;5.85;;;2.70;;
70320;SDS011;61127;55.826;37.046;2023-03-14T13:29:00;6.53;;;2.63;;
70320;SDS011;61127;55.826;37.046;2023-03-14T13:31:33;5.50;;;2.55;;
70320;SDS011;61127;55.826;37.046;2023-03-14T13:34:04;5.53;;;3.08;;
70320;SDS011;61127;55.826;37.046;2023-03-14T13:36:30;7.43;;;3.00;;
70320;SDS011;61127;55.826;37.046;2023-03-14T13:39:00;6.70;;;2.90;;
70320;SDS011;61127;55.826;37.046;2023-03-14T13:41:27;6.30;;;2.88;;
70320;SDS011;61127;55.826;37.046;2023-03-14T13:43:55;6.18;;;3.17;;
70320;SDS011;61127;55.826;37.046;2023-03-14T13:46:24;6.10;;;2.75;;
70320;SDS011;61127;55.826;37.046;2023-03-14T13:51:16;6.05;;;2.95;;
70320;SDS011;61127;55.826;37.046;2023-03-14T13:53:50;7.10;;;2.80;;
70320;SDS011;61127;55.826;37.046;2023-03-14T13:56:21;5.90;;;2.92;;
70320;SDS011;61127;55.826;37.046;2023-03-14T13:58:47;7.20;;;3.08;;
70320;SDS011;61127;55.826;37.046;2023-03-14T14:01:17;7.47;;;2.92;;
70320;SDS011;61127;55.826;37.046;2023-03-14T14:03:44;6.43;;;2.72;;
70320;SDS011;61127;55.826;37.046;2023-03-14T14:06:28;7.43;;;3.00;;
70320;SDS011;61127;55.826;37.046;2023-03-14T14:08:56;5.78;;;3.00;;
70320;SDS011;61127;55.826;37.046;2023-03-14T14:13:53;6.38;;;2.72;;
70320;SDS011;61127;55.826;37.046;2023-03-14T14:16:20;7.75;;;3.10;;
70320;SDS011;61127;55.826;37.046;2023-03-14T14:18:47;5.93;;;2.53;;
70320;SDS011;61127;55.826;37.046;2023-03-14T14:21:12;5.68;;;2.63;;
70320;SDS011;61127;55.826;37.046;2023-03-14T14:23:38;7.72;;;2.83;;
70320;SDS011;61127;55.826;37.046;2023-03-14T14:26:05;6.35;;;2.72;;
70320;SDS011;61127;55.826;37.046;2023-03-14T14:28:35;6.18;;;3.17;;
70320;SDS011;61127;55.826;37.046;2023-03-14T14:31:05;6.50;;;2.90;;
70320;SDS011;61127;55.826;37.046;2023-03-14T14:33:38;4.78;;;2.65;;
70320;SDS011;61127;55.826;37.046;2023-03-14T14:36:05;6.60;;;2.88;;
70320;SDS011;61127;55.826;37.046;2023-03-14T14:38:37;8.25;;;2.80;;
70320;SDS011;61127;55.826;37.046;2023-03-14T14:41:03;7.00;;;3.00;;
70320;SDS011;61127;55.826;37.046;2023-03-14T14:43:29;4.78;;;2.60;;
70320;SDS011;61127;55.826;37.046;2023-03-14T14:45:56;6.53;;;3.10;;
70320;SDS011;61127;55.826;37.046;2023-03-14T14:48:23;6.88;;;2.80;;
70320;SDS011;61127;55.826;37.046;2023-03-14T14:53:22;5.27;;;2.43;;
70320;SDS011;61127;55.826;37.046;2023-03-14T14:55:53;8.55;;;2.83;;
70320;SDS011;61127;55.826;37.046;2023-03-14T14:58:29;5.95;;;2.72;;
70320;SDS011;61127;55.826;37.046;2023-03-14T15:00:56;6.68;;;3.05;;
70320;SDS011;61127;55.826;37.046;2023-03-14T15:03:25;6.18;;;2.85;;
70320;SDS011;61127;55.826;37.046;2023-03-14T15:05:51;6.67;;;2.77;;
70320;SDS011;61127;55.826;37.046;2023-03-14T15:08:18;6.70;;;2.78;;
70320;SDS011;61127;55.826;37.046;2023-03-14T15:10:43;6.47;;;3.00;;
70320;SDS011;61127;55.826;37.046;2023-03-14T15:13:09;7.65;;;2.90;;
70320;SDS011;61127;55.826;37.046;2023-03-14T15:15:36;6.07;;;3.20;;
70320;SDS011;61127;55.826;37.046;2023-03-14T15:18:02;8.75;;;3.10;;
70320;SDS011;61127;55.826;37.046;2023-03-14T15:20:28;5.90;;;3.00;;
70320;SDS011;61127;55.826;37.046;2023-03-14T15:22:53;10.48;;;2.92;;
70320;SDS011;61127;55.826;37.046;2023-03-14T15:25:23;6.97;;;2.90;;
70320;SDS011;61127;55.826;37.046;2023-03-14T15:27:49;8.25;;;3.00;;
70320;SDS011;61127;55.826;37.046;2023-03-14T15:30:15;8.30;;;3.97;;
70320;SDS011;61127;55.826;37.046;2023-03-14T15:32:40;6.72;;;2.97;;
70320;SDS011;61127;55.826;37.046;2023-03-14T15:35:06;5.53;;;2.85;;
70320;SDS011;61127;55.826;37.046;2023-03-14T15:37:32;8.73;;;3.40;;
70320;SDS011;61127;55.826;37.046;2023-03-14T15:39:58;8.93;;;3.13;;
70320;SDS011;61127;55.826;37.046;2023-03-14T15:42:23;6.40;;;2.77;;
70320;SDS011;61127;55.826;37.046;2023-03-14T15:44:49;8.30;;;2.85;;
70320;SDS011;61127;55.826;37.046;2023-03-14T15:47:16;5.57;;;3.30;;
70320;SDS011;61127;55.826;37.046;2023-03-14T15:49:41;8.77;;;3.13;;
70320;SDS011;61127;55.826;37.046;2023-03-14T15:52:07;5.78;;;2.90;;
70320;SDS011;61127;55.826;37.046;2023-03-14T15:54:34;7.30;;;2.83;;
70320;SDS011;61127;55.826;37.046;2023-03-14T15:56:59;7.80;;;2.72;;
70320;SDS011;61127;55.826;37.046;2023-03-14T15:59:25;7.35;;;3.10;;
70320;SDS011;61127;55.826;37.046;2023-03-14T16:01:51;7.13;;;3.40;;
70320;SDS011;61127;55.826;37.046;2023-03-14T16:04:17;6.50;;;3.30;;
70320;SDS011;61127;55.826;37.046;2023-03-14T16:09:11;6.50;;;3.05;;
70320;SDS011;61127;55.826;37.046;2023-03-14T16:11:37;7.07;;;2.65;;